Hurstpierpoint, United Kingdom
Current Conditions -  °F | °C
As of 8:50 AM on Saturday 29 Nov 2014 (Local Time) from EGKA Reporting Station
Clear Clear  
Wind Chill: 48°   Ceiling: Unl
Heat Index: 48°   Visibility: 4mi
Dew Point: 46°   Wind: 3mph
Humidity: 93%   Direction: 40°NE
Pressure: 29.8"   Gusts: NA
Location:  50.93°N, 0.18°W
Report Text: EGKA 290850Z 04003KT 6000 NSC 09/08 Q1009
Loading
Personal Weather Stations






























Interactive Weather Map New forecast layout! Learn more

10-Day Weather Forecast

Advertisements
Track Severe Weather on mobile